ホノルル の空港の天気 - METARとTAF

ホノルル国際空港 ( PHNL / HNL ) - アメリカ ハワイ州ホノルル
飛行場実況気象(Metar)
観測時間06/23 23:53 HST (06/24 09:53 UTC)
風向・風速北 3m/s
視程10km以上
天気現象
全天の8割程度の雲 雲底高度 580m
全天を覆う雲 雲底高度 880m
気温25.6℃
湿度90%
気圧1017.2hPa
METARPHNL 240953Z 01006KT 10SM BKN019 OVC029 26/24 A3004 RMK AO2 RAE0855 SLP172 P0000 T02560239 403110244 $
過去の天気等 Google飛行場航空写真 Wunderground天気予報

過去48時間のMETAR

飛行場予報(TAF)
発表時間: 6/23 23:03 HST (6/24 09:03 UTC)
予報対象時間: 23日23時 HST ~ 25日2時 HST
風向・風速不定 3m/s
視程10km以上
天気現象周辺でしゅう雨
全天の4割程度の雲 雲底高度 760m
全天の4割程度の雲 雲底高度 1520m
全天の8割程度の雲 雲底高度 6100m
23日23時 HST ~ 24日1時 HST に一時的に
天気現象弱いしゅう雨
全天の8割程度の雲 雲底高度 760m
24日11時 HST から
風向・風速南南東 4m/s
視程10km以上
全天の4割程度の雲 雲底高度 760m
全天の4割程度の雲 雲底高度 1520m
全天の8割程度の雲 雲底高度 6100m
24日19時 HST から
風向・風速不定 3m/s
視程10km以上
全天の4割程度の雲 雲底高度 760m
全天の4割程度の雲 雲底高度 1520m
全天の8割程度の雲 雲底高度 6100m
PHNL 240903Z 2409/2512 VRB05KT P6SM VCSH SCT025 SCT050 BKN200
TEMPO 2409/2411 -SHRA BKN025
FM242100 15008KT P6SM SCT025 SCT050 BKN200
FM250500 VRB05KT P6SM SCT025 SCT050 BKN200